createdAt,value
2022-09-20T00:01:04.559Z,8.83
2022-09-20T00:03:37.514Z,8.85
2022-09-20T00:06:12.735Z,8.88
2022-09-20T00:08:48.021Z,8.90
2022-09-20T00:11:24.674Z,8.94
2022-09-20T00:14:02.391Z,8.99
2022-09-20T00:16:38.167Z,9.01
2022-09-20T00:19:20.387Z,9.03
2022-09-20T00:21:52.422Z,9.06
2022-09-20T00:24:24.407Z,9.06
2022-09-20T00:26:56.329Z,9.05
2022-09-20T00:29:28.326Z,9.04
2022-09-20T00:32:00.547Z,9.04
2022-09-20T00:34:50.057Z,9.02
2022-09-20T00:37:22.239Z,9.01
2022-09-20T00:39:54.779Z,9.03
2022-09-20T00:42:31.630Z,9.05
2022-09-20T00:45:06.000Z,9.09
2022-09-20T00:47:41.955Z,9.15
2022-09-20T00:50:28.613Z,9.20
2022-09-20T00:53:05.182Z,9.24
2022-09-20T00:55:42.002Z,9.27
2022-09-20T00:58:15.003Z,9.31
2022-09-20T01:00:50.248Z,9.34
2022-09-20T01:03:24.006Z,9.37
2022-09-20T01:05:57.267Z,9.39
2022-09-20T01:08:29.590Z,9.39
2022-09-20T01:11:01.927Z,9.36
2022-09-20T01:13:33.786Z,9.30
2022-09-20T01:16:08.111Z,9.27
2022-09-20T01:18:41.066Z,9.26
2022-09-20T01:21:13.713Z,9.29
2022-09-20T01:24:00.593Z,9.33
2022-09-20T01:27:02.255Z,9.37
2022-09-20T01:29:46.915Z,9.43
2022-09-20T01:32:25.027Z,9.52
2022-09-20T01:35:02.530Z,9.57
2022-09-20T01:37:48.986Z,9.63
2022-09-20T01:40:31.827Z,9.69
2022-09-20T01:43:18.031Z,9.72
2022-09-20T01:45:51.510Z,9.74
2022-09-20T01:48:35.159Z,9.76
2022-09-20T01:51:46.531Z,9.74
2022-09-20T01:54:58.210Z,9.69
2022-09-20T01:57:47.572Z,9.62
2022-09-20T02:00:23.548Z,9.58
2022-09-20T02:03:34.519Z,9.57
2022-09-20T02:06:23.475Z,9.58
2022-09-20T02:09:28.151Z,9.60
2022-09-20T02:12:19.800Z,9.62
2022-09-20T02:15:00.453Z,9.62
2022-09-20T02:17:42.971Z,9.65
2022-09-20T02:20:40.553Z,9.65
2022-09-20T02:23:33.134Z,9.63
2022-09-20T02:26:17.001Z,9.57
2022-09-20T02:29:03.383Z,9.52
2022-09-20T02:31:53.811Z,9.45
2022-09-20T02:34:43.505Z,9.39
2022-09-20T02:37:36.112Z,9.39
2022-09-20T02:40:25.270Z,9.40
2022-09-20T02:43:08.950Z,9.43
2022-09-20T02:45:47.535Z,9.42
2022-09-20T02:48:37.704Z,9.45
2022-09-20T02:51:19.606Z,9.49
2022-09-20T02:54:04.083Z,9.50
2022-09-20T02:56:44.544Z,9.53
2022-09-20T02:59:26.600Z,9.56
2022-09-20T03:02:09.907Z,9.61
2022-09-20T03:05:01.706Z,9.63
2022-09-20T03:07:44.137Z,9.64
2022-09-20T03:10:26.856Z,9.68
2022-09-20T03:13:13.005Z,9.67
2022-09-20T03:15:56.688Z,9.67
2022-09-20T03:18:43.322Z,9.68
2022-09-20T03:21:29.459Z,9.67
2022-09-20T03:24:13.001Z,9.66
2022-09-20T03:26:56.475Z,9.69
2022-09-20T03:29:43.035Z,9.72
2022-09-20T03:32:30.016Z,9.74
2022-09-20T03:35:18.388Z,9.76
2022-09-20T04:01:49.461Z,9.85
2022-09-20T04:37:41.329Z,10.09
2022-09-20T04:40:22.166Z,10.13
2022-09-20T04:43:32.032Z,10.12
2022-09-20T04:46:28.587Z,10.02
2022-09-20T04:49:28.895Z,9.95
2022-09-20T04:52:42.581Z,9.89
2022-09-20T04:55:53.464Z,9.92
2022-09-20T04:59:07.926Z,10.01
2022-09-20T05:02:24.477Z,10.06
2022-09-20T05:05:37.719Z,10.06
2022-09-20T05:09:07.727Z,10.11
2022-09-20T05:12:15.987Z,10.15
2022-09-20T05:15:23.092Z,10.18
2022-09-20T05:18:42.322Z,10.12
2022-09-20T05:21:30.617Z,10.05
2022-09-20T05:24:22.139Z,10.02
2022-09-20T05:27:26.723Z,10.06
2022-09-20T05:30:31.446Z,10.08
2022-09-20T05:33:24.885Z,10.13
2022-09-20T05:36:14.746Z,10.17
2022-09-20T05:39:04.287Z,10.14
2022-09-20T05:42:02.336Z,10.10
2022-09-20T05:45:01.053Z,10.09
2022-09-20T05:47:41.656Z,10.15
2022-09-20T05:50:31.183Z,10.26
2022-09-20T05:53:48.085Z,10.37
2022-09-20T05:56:36.016Z,10.46
2022-09-20T05:59:23.092Z,10.45
2022-09-20T06:02:12.448Z,10.53
2022-09-20T06:05:12.538Z,10.65
2022-09-20T06:08:31.150Z,10.75
2022-09-20T06:11:15.807Z,10.72
2022-09-20T06:14:15.917Z,10.66
2022-09-20T06:16:55.088Z,10.67
2022-09-20T06:19:52.941Z,10.75
2022-09-20T06:22:46.060Z,10.87
2022-09-20T06:25:45.946Z,10.96
2022-09-20T06:28:20.951Z,11.07
2022-09-20T06:30:55.043Z,11.14
2022-09-20T06:33:28.412Z,11.23
2022-09-20T06:36:44.304Z,11.30
2022-09-20T06:39:49.178Z,11.36
2022-09-20T06:42:36.176Z,11.43
2022-09-20T06:45:10.608Z,11.45
2022-09-20T06:47:43.404Z,11.41
2022-09-20T06:50:19.548Z,11.43
2022-09-20T06:52:53.845Z,11.48
2022-09-20T06:55:41.045Z,11.48
2022-09-20T06:58:33.250Z,11.41
2022-09-20T07:01:30.462Z,11.38
2022-09-20T07:04:03.073Z,11.33
2022-09-20T07:07:00.587Z,11.23
2022-09-20T07:09:52.741Z,11.18
2022-09-20T07:12:24.823Z,11.24
2022-09-20T07:15:08.983Z,11.27
2022-09-20T07:18:00.270Z,11.30
2022-09-20T07:20:45.146Z,11.34
2022-09-20T07:23:37.410Z,11.42
2022-09-20T07:26:31.253Z,11.63
2022-09-20T07:29:08.014Z,11.76
2022-09-20T07:31:40.136Z,11.83
2022-09-20T07:34:12.272Z,11.93
2022-09-20T07:36:44.177Z,12.11
2022-09-20T07:39:16.192Z,12.26
2022-09-20T07:41:50.870Z,12.36
2022-09-20T07:44:25.058Z,12.50
2022-09-20T07:46:59.467Z,12.67
2022-09-20T07:49:41.864Z,12.86
2022-09-20T07:52:14.778Z,13.00
2022-09-20T07:54:59.107Z,13.12
2022-09-20T07:57:37.779Z,13.13
2022-09-20T08:00:29.762Z,13.24
2022-09-20T08:03:13.097Z,13.24
2022-09-20T08:06:00.174Z,13.20
2022-09-20T08:08:42.694Z,13.12
2022-09-20T08:11:29.889Z,13.02
2022-09-20T08:14:22.345Z,12.95
2022-09-20T08:17:07.264Z,12.89
2022-09-20T08:20:00.778Z,12.82
2022-09-20T08:22:34.933Z,12.84
2022-09-20T08:25:27.215Z,12.88
2022-09-20T08:28:03.021Z,12.79
2022-09-20T08:31:01.390Z,12.81
2022-09-20T08:33:40.661Z,12.80
2022-09-20T08:36:36.698Z,12.78
2022-09-20T08:42:33.626Z,12.61
2022-09-20T08:45:33.677Z,12.68
2022-09-20T08:48:14.449Z,12.86
2022-09-20T08:50:46.495Z,13.09
2022-09-20T08:53:49.247Z,13.27
2022-09-20T08:56:30.919Z,13.33
2022-09-20T08:59:26.124Z,13.37
2022-09-20T09:02:20.189Z,13.41
2022-09-20T09:05:12.588Z,13.32
2022-09-20T09:08:09.217Z,13.27
2022-09-20T09:10:42.845Z,13.31
2022-09-20T09:13:40.733Z,13.37
2022-09-20T09:16:36.490Z,13.47
2022-09-20T09:19:34.458Z,13.68
2022-09-20T09:22:22.390Z,13.82
2022-09-20T09:25:25.288Z,13.87
2022-09-20T09:28:16.218Z,13.84
2022-09-20T09:31:26.882Z,13.54
2022-09-20T09:33:59.099Z,13.39
2022-09-20T09:36:49.913Z,13.29
2022-09-20T09:39:31.507Z,13.20
2022-09-20T09:42:29.082Z,13.18
2022-09-20T09:45:39.120Z,13.17
2022-09-20T09:48:27.606Z,13.16
2022-09-20T09:51:23.497Z,13.23
2022-09-20T09:54:10.631Z,13.47
2022-09-20T09:57:15.907Z,13.87
2022-09-20T10:00:19.637Z,14.29
2022-09-20T10:03:29.465Z,14.45
2022-09-20T10:06:20.226Z,14.70
2022-09-20T10:09:18.134Z,14.87
2022-09-20T10:12:05.661Z,14.99
2022-09-20T10:14:49.688Z,15.15
2022-09-20T10:17:35.506Z,15.34
2022-09-20T10:20:28.297Z,15.45
2022-09-20T10:23:51.512Z,15.64
2022-09-20T10:26:18.572Z,15.81
2022-09-20T10:29:08.514Z,16.02
2022-09-20T10:32:15.640Z,16.28
2022-09-20T10:35:16.493Z,16.31
2022-09-20T10:38:05.293Z,16.33
2022-09-20T10:41:26.234Z,16.14
2022-09-20T10:44:37.071Z,16.04
2022-09-20T10:47:25.569Z,15.82
2022-09-20T10:50:08.564Z,15.72
2022-09-20T10:53:01.793Z,15.74
2022-09-20T10:56:05.280Z,15.94
2022-09-20T10:59:21.237Z,16.09
2022-09-20T11:02:22.320Z,16.13
2022-09-20T11:05:30.921Z,16.19
2022-09-20T11:08:12.011Z,16.19
2022-09-20T11:10:50.035Z,16.17
2022-09-20T11:13:35.095Z,16.07
2022-09-20T11:16:34.205Z,16.17
2022-09-20T11:19:20.270Z,16.36
2022-09-20T11:21:59.821Z,16.56
2022-09-20T11:24:36.256Z,16.51
2022-09-20T11:27:14.135Z,16.37
2022-09-20T11:29:51.889Z,16.32
2022-09-20T11:32:31.961Z,16.39
2022-09-20T11:35:15.175Z,16.49
2022-09-20T11:37:57.358Z,16.42
2022-09-20T11:40:33.149Z,16.29
2022-09-20T11:43:11.198Z,16.21
2022-09-20T11:45:45.202Z,16.21
2022-09-20T11:48:26.389Z,16.28
2022-09-20T11:51:42.874Z,16.25
2022-09-20T11:55:10.872Z,16.17
2022-09-20T11:57:46.882Z,15.95
2022-09-20T12:00:33.320Z,15.76
2022-09-20T12:03:30.105Z,15.59
2022-09-20T12:06:05.395Z,15.58
2022-09-20T12:08:59.965Z,15.61
2022-09-20T12:11:52.596Z,15.94
2022-09-20T12:14:39.149Z,16.22
2022-09-20T12:17:44.342Z,16.43
2022-09-20T12:21:01.329Z,16.70
2022-09-20T12:24:22.505Z,17.00
2022-09-20T12:26:57.544Z,17.11
2022-09-20T12:30:16.873Z,17.02
2022-09-20T12:33:01.139Z,16.62
2022-09-20T12:36:14.542Z,16.23
2022-09-20T12:39:01.534Z,15.80
2022-09-20T12:41:46.108Z,15.51
2022-09-20T12:44:33.922Z,15.21
2022-09-20T12:47:16.147Z,14.92
2022-09-20T12:50:12.754Z,14.68
2022-09-20T12:52:57.604Z,14.46
2022-09-20T12:55:40.051Z,14.31
2022-09-20T12:58:27.265Z,14.20
2022-09-20T13:01:33.429Z,14.11
2022-09-20T13:04:39.006Z,14.03
2022-09-20T13:07:44.696Z,14.00
2022-09-20T13:10:30.473Z,14.10
2022-09-20T13:13:12.752Z,14.27
2022-09-20T13:15:51.922Z,14.42
2022-09-20T13:18:27.500Z,14.71
2022-09-20T13:21:03.545Z,15.14
2022-09-20T13:23:46.458Z,15.41
2022-09-20T13:26:27.611Z,15.52
2022-09-20T13:29:03.429Z,15.49
2022-09-20T13:31:36.785Z,15.50
2022-09-20T13:34:23.026Z,15.74
2022-09-20T13:37:04.164Z,16.10
2022-09-20T13:39:39.462Z,16.32
2022-09-20T13:42:35.809Z,16.39
2022-09-20T13:45:33.221Z,16.28
2022-09-20T13:48:09.938Z,16.11
2022-09-20T13:51:02.545Z,16.13
2022-09-20T13:53:43.765Z,16.17
2022-09-20T13:56:29.959Z,16.17
2022-09-20T13:59:19.286Z,16.19
2022-09-20T14:02:02.253Z,16.22
2022-09-20T14:04:35.817Z,16.30
2022-09-20T14:07:09.647Z,16.34
2022-09-20T14:09:42.090Z,16.34
2022-09-20T14:12:15.675Z,16.32
2022-09-20T14:14:47.848Z,16.19
2022-09-20T14:17:25.796Z,16.08
2022-09-20T14:20:15.432Z,16.10
2022-09-20T14:23:04.310Z,16.24
2022-09-20T14:26:26.950Z,16.40
2022-09-20T14:29:38.551Z,16.51
2022-09-20T14:32:29.712Z,16.47
2022-09-20T14:35:09.243Z,16.43
2022-09-20T14:37:46.784Z,16.42
2022-09-20T14:40:30.458Z,16.30
2022-09-20T14:43:31.593Z,16.08
2022-09-20T14:46:18.883Z,15.78
2022-09-20T14:49:22.318Z,15.49
2022-09-20T14:52:37.327Z,15.15
2022-09-20T14:55:33.806Z,14.83
2022-09-20T14:58:19.246Z,14.48
2022-09-20T15:01:07.282Z,14.16
2022-09-20T15:03:49.694Z,13.94
2022-09-20T15:06:21.913Z,13.74
2022-09-20T15:08:54.625Z,13.51
2022-09-20T15:11:46.997Z,13.36
2022-09-20T15:14:18.883Z,13.35
2022-09-20T15:16:53.371Z,13.39
2022-09-20T15:19:25.236Z,13.51
2022-09-20T15:22:00.582Z,13.63
2022-09-20T15:24:52.701Z,13.79
2022-09-20T15:27:46.511Z,13.86
2022-09-20T15:30:22.505Z,13.84
2022-09-20T15:33:15.772Z,13.83
2022-09-20T15:35:48.798Z,13.85
2022-09-20T15:38:26.854Z,13.83
2022-09-20T15:41:01.281Z,13.78
2022-09-20T15:43:53.555Z,13.75
2022-09-20T15:46:39.111Z,13.73
2022-09-20T15:49:33.363Z,13.66
2022-09-20T15:52:08.751Z,13.55
2022-09-20T15:54:46.321Z,13.41
2022-09-20T15:57:38.987Z,13.29
2022-09-20T16:00:31.512Z,13.19
2022-09-20T16:03:15.084Z,13.06
2022-09-20T16:06:04.407Z,12.95
2022-09-20T16:08:38.501Z,12.87
2022-09-20T16:11:31.357Z,12.78
2022-09-20T16:14:04.101Z,12.71
2022-09-20T16:16:40.376Z,12.72
2022-09-20T16:19:26.816Z,12.76
2022-09-20T16:21:59.952Z,12.77
2022-09-20T16:24:34.662Z,12.74
2022-09-20T16:27:09.063Z,12.68
2022-09-20T16:29:41.574Z,12.63
2022-09-20T16:32:13.989Z,12.57
2022-09-20T16:34:46.182Z,12.47
2022-09-20T16:37:18.534Z,12.35
2022-09-20T16:39:51.304Z,12.23
2022-09-20T16:42:24.007Z,12.18
2022-09-20T16:44:57.568Z,12.11
2022-09-20T16:47:30.032Z,12.04
2022-09-20T16:50:02.923Z,11.95
2022-09-20T16:52:35.117Z,11.90
2022-09-20T16:55:09.313Z,11.80
2022-09-20T16:57:41.490Z,11.69
2022-09-20T17:00:17.228Z,11.53
2022-09-20T17:02:52.228Z,11.35
2022-09-20T17:05:24.441Z,11.24
2022-09-20T17:07:57.374Z,11.19
2022-09-20T17:10:30.392Z,11.14
2022-09-20T17:13:03.541Z,11.12
2022-09-20T17:15:36.371Z,11.10
2022-09-20T17:18:14.873Z,11.05
2022-09-20T17:20:49.808Z,11.06
2022-09-20T17:23:24.402Z,11.06
2022-09-20T17:26:07.490Z,11.05
2022-09-20T17:28:42.244Z,11.02
2022-09-20T17:31:18.099Z,11.03
2022-09-20T17:33:50.178Z,11.03
2022-09-20T17:36:22.984Z,10.99
2022-09-20T17:39:01.705Z,10.94
2022-09-20T17:41:47.729Z,10.93
2022-09-20T17:44:20.084Z,10.89
2022-09-20T17:46:54.401Z,10.84
2022-09-20T17:49:27.817Z,10.79
2022-09-20T17:51:59.942Z,10.75
2022-09-20T17:54:31.991Z,10.75
2022-09-20T17:57:06.802Z,10.74
2022-09-20T17:59:38.703Z,10.73
2022-09-20T18:02:11.846Z,10.74
2022-09-20T18:04:43.832Z,10.72
2022-09-20T18:07:15.823Z,10.70
2022-09-20T18:09:47.841Z,10.73
2022-09-20T18:12:21.504Z,10.74
2022-09-20T18:14:53.903Z,10.74
2022-09-20T18:17:28.415Z,10.72
2022-09-20T18:20:03.854Z,10.72
2022-09-20T18:22:38.888Z,10.75
2022-09-20T18:25:12.013Z,10.73
2022-09-20T18:27:44.362Z,10.70
2022-09-20T18:30:18.219Z,10.65
2022-09-20T18:32:54.303Z,10.63
2022-09-20T18:35:29.004Z,10.58
2022-09-20T18:38:01.562Z,10.56
2022-09-20T18:40:37.051Z,10.53
2022-09-20T18:43:15.040Z,10.52
2022-09-20T18:45:55.247Z,10.49
2022-09-20T18:48:29.071Z,10.50
2022-09-20T18:51:05.685Z,10.49
2022-09-20T18:53:48.454Z,10.47
2022-09-20T18:56:26.711Z,10.45
2022-09-20T18:59:01.944Z,10.42
2022-09-20T19:01:55.724Z,10.38
2022-09-20T19:04:44.292Z,10.36
2022-09-20T19:07:23.715Z,10.35
2022-09-20T19:10:04.507Z,10.35
2022-09-20T19:12:42.908Z,10.32
2022-09-20T19:15:31.223Z,10.29
2022-09-20T19:18:24.350Z,10.28
2022-09-20T19:21:08.090Z,10.31
2022-09-20T19:23:52.419Z,10.30
2022-09-20T19:26:26.312Z,10.28
2022-09-20T19:29:01.652Z,10.30
2022-09-20T19:31:38.046Z,10.31
2022-09-20T19:34:19.239Z,10.32
2022-09-20T19:37:03.634Z,10.31
2022-09-20T19:39:53.250Z,10.33
2022-09-20T19:42:32.189Z,10.33
2022-09-20T19:45:32.308Z,10.33
2022-09-20T19:48:14.662Z,10.31
2022-09-20T19:50:50.740Z,10.32
2022-09-20T19:53:27.310Z,10.32
2022-09-20T19:56:03.406Z,10.30
2022-09-20T19:58:41.377Z,10.29
2022-09-20T20:01:14.988Z,10.27
2022-09-20T20:03:48.219Z,10.26
2022-09-20T20:06:27.956Z,10.24
2022-09-20T20:09:07.762Z,10.22
2022-09-20T20:11:52.980Z,10.17
2022-09-20T20:14:35.266Z,10.15
2022-09-20T20:17:17.056Z,10.12
2022-09-20T20:20:05.672Z,10.12
2022-09-20T20:22:53.224Z,10.09
2022-09-20T20:25:51.940Z,10.07
2022-09-20T20:28:22.491Z,10.06
2022-09-20T20:30:59.134Z,10.06
2022-09-20T20:33:34.509Z,10.07
2022-09-20T20:36:09.099Z,10.09
2022-09-20T20:38:49.632Z,10.09
2022-09-20T20:41:23.853Z,10.07
2022-09-20T20:43:57.211Z,10.07
2022-09-20T20:46:32.726Z,10.07
2022-09-20T20:49:05.146Z,10.07
2022-09-20T20:51:37.621Z,10.06
2022-09-20T20:54:11.940Z,10.07
2022-09-20T20:56:46.170Z,10.06
2022-09-20T20:59:18.227Z,10.05
2022-09-20T21:01:52.914Z,10.04
2022-09-20T21:04:25.439Z,10.02
2022-09-20T21:06:58.435Z,9.98
2022-09-20T21:09:30.347Z,9.97
2022-09-20T21:12:06.560Z,9.96
2022-09-20T21:14:38.516Z,9.96
2022-09-20T21:17:11.046Z,9.95
2022-09-20T21:19:42.965Z,9.99
2022-09-20T21:22:14.855Z,10.00
2022-09-20T21:24:47.159Z,10.00
2022-09-20T21:27:22.155Z,10.02
2022-09-20T21:29:54.510Z,10.02
2022-09-20T21:32:26.834Z,10.02
2022-09-20T21:35:01.206Z,9.99
2022-09-20T21:37:33.075Z,9.99
2022-09-20T21:40:05.438Z,9.98
2022-09-20T21:42:37.252Z,9.99
2022-09-20T21:45:11.166Z,10.00
2022-09-20T21:47:43.010Z,10.00
2022-09-20T21:50:15.648Z,10.02
2022-09-20T21:52:48.436Z,10.00
2022-09-20T21:55:21.731Z,9.99
2022-09-20T21:57:53.423Z,10.01
2022-09-20T22:00:26.392Z,10.03
2022-09-20T22:02:59.494Z,10.04
2022-09-20T22:05:31.306Z,10.03
2022-09-20T22:08:03.531Z,10.01
2022-09-20T22:10:36.388Z,10.00
2022-09-20T22:13:10.509Z,9.95
2022-09-20T22:15:42.187Z,9.89
2022-09-20T22:18:14.086Z,9.82
2022-09-20T22:20:47.720Z,9.79
2022-09-20T22:23:22.535Z,9.76
2022-09-20T22:26:02.645Z,9.73
2022-09-20T22:28:34.639Z,9.71
2022-09-20T22:31:11.279Z,9.68
2022-09-20T22:33:46.600Z,9.63
2022-09-20T22:36:20.313Z,9.58
2022-09-20T22:38:52.820Z,9.54
2022-09-20T22:41:24.990Z,9.51
2022-09-20T22:43:56.939Z,9.46
2022-09-20T22:46:30.802Z,9.41
2022-09-20T22:49:02.531Z,9.39
2022-09-20T22:51:38.035Z,9.38
2022-09-20T22:54:12.355Z,9.40
2022-09-20T22:56:47.288Z,9.40
2022-09-20T22:59:19.031Z,9.40
2022-09-20T23:01:51.137Z,9.40
2022-09-20T23:04:23.427Z,9.40
2022-09-20T23:07:04.915Z,9.39
2022-09-20T23:09:36.703Z,9.39
2022-09-20T23:12:09.032Z,9.39
2022-09-20T23:14:40.785Z,9.40
2022-09-20T23:17:14.885Z,9.38
2022-09-20T23:19:46.700Z,9.40
2022-09-20T23:22:18.431Z,9.40
2022-09-20T23:24:50.169Z,9.39
2022-09-20T23:27:21.986Z,9.37
2022-09-20T23:29:53.778Z,9.38
2022-09-20T23:32:28.349Z,9.36
2022-09-20T23:35:00.029Z,9.38
2022-09-20T23:37:31.766Z,9.37
2022-09-20T23:40:04.004Z,9.38
2022-09-20T23:42:38.047Z,9.38
2022-09-20T23:45:12.346Z,9.39
2022-09-20T23:47:44.104Z,9.41
2022-09-20T23:50:15.895Z,9.39
2022-09-20T23:52:47.704Z,9.40
2022-09-20T23:55:19.488Z,9.41
2022-09-20T23:57:54.511Z,9.42
